Terminal Aerodrome Forecast
Issued by NWS

Home | Current Version | Previous Version | Text Only | Print | Product List | Glossary On
Versions: 1 2 3 4 5 6 7 8 9 10 11 12 13 14 15 16 17 18 19 20
000
FTUS41 KGYX 251720
TAFLEB
TAF
KLEB 251720Z 2518/2618 23005KT P6SM BKN100
     FM260000 VRB03KT P6SM -SHRA OVC040
     FM260400 18006KT 5SM -SHRA BR OVC025
     FM261000 20009KT P6SM BKN100
     FM261400 24010G17KT P6SM BKN050=

USA.gov is the U.S. government's official web portal to all federal, state and local government web resources and services.